Airfield :







YOU CAN JOIN US ON...

 
LOGIN :

Register | Disclaimer

   EN    FR    IT 

 









Legend :    VFR   Marginal VFR   IFR   Intensive IFR   Very Intensive IFR
Visi :
Ceiling :
>= 8 km
>= 3000ft
5 to 8 km
1000 to 3000 ft
1500m to 5 km
500 to 1000 ft
800 to 1500m
200 to 500 ft
< 800m
< 200 ft
Symbols :   Thunderstorms  Fog  Heavy snow  Heavy precipitations  Wind > 20 kt






- Airport Elevation : 20 ft
- IATA code : BOS


KBOS - General Edward Lawrence Logan International

CURRENT METAR :
  • 270507Z 06014KT 3SM -DZ BR OVC003 07/04 A2982 RMK AO2 P0000 T00670044

EXPIRED METARs :
  • 270454Z 06015KT 2SM -DZ OVC003 07/04 A2983 RMK AO2 PRESFR SLP099 P0000 T00670039 400890022
  • 270406Z 06012KT 2SM -DZ BR OVC003 07/04 A2987 RMK AO2 P0000 T00670044
  • 270354Z 06012KT 1/4SM R04R/P6000FT -DZ BR OVC003 07/04 A2987 RMK AO2 SFC VIS 2 DZB36 SLP114 P0000 T00670044
  • 270254Z 06011KT 1/4SM R04R/P6000FT BR BKN002 OVC008 07/04 A2990 RMK AO2 SFC VIS 1 SLP125 T00670044 58019

TAF KBOS
Valid from the 27 at 06:00 until the 28 at 12:00 UTC


270538Z 2706/2812 07012KT 2SM -DZ BR OVC003
FM270700 08013G21KT 1SM -RA BR OVC003
FM271000 09018G28KT 1SM +RA BR OVC003
FM271400 19019G30KT 5SM BR VCSH OVC008
FM271500 22019G29KT P6SM OVC015
FM271600 25020G30KT P6SM BKN040
FM280000 26019G32KT P6SM SCT060



MET'MAP, your aeronautical weather chart ! - Copyright ORBIFLY December 2007 - Disclaimer

ORBIFLY MET'MAP TEAM :

Programming & Development : Alexandra Zaïnal
Concept & original design : Baudouin d'Aumeries
Assistance for programming : Marc-Olivier Méhu
Technical & hardware support : Manuel Goepfert

Contact : metmap@orbifly.com




SOURCES & CREDITS :

   NOAA